Time;durP1;ratioP1;P1;durP2;ratioP2;P2;SDS_P1;SDS_P2;PMS_P1;PMS_P2;Temp;Humidity;BMP_temperature;BMP_pressure;BME280_temperature;BME280_humidity;BME280_pressure;Samples;Min_cycle;Max_cycle;Signal;HPM_P1;HPM_P2
2020/12/12 00:02:20;;;;;;;103.93;41.90;;;;;;;-0.70;100.00;99421.50;5011140;28;20049;-69
2020/12/12 00:04:47;;;;;;;112.83;41.37;;;;;;;-0.66;100.00;99425.88;5008916;28;20060;-69
2020/12/12 00:07:14;;;;;;;107.93;41.80;;;;;;;-0.68;100.00;99418.91;5002115;28;20121;-69
2020/12/12 00:09:40;;;;;;;98.50;38.90;;;;;;;-0.67;100.00;99421.53;5010397;28;20045;-69
2020/12/12 00:12:06;;;;;;;103.80;38.53;;;;;;;-0.66;100.00;99414.63;4993308;28;20615;-69
2020/12/12 00:14:38;;;;;;;109.43;43.97;;;;;;;-0.66;100.00;99420.69;5009904;28;20070;-69
2020/12/12 00:17:04;;;;;;;109.17;40.53;;;;;;;-0.63;100.00;99412.91;5016843;28;20037;-69
2020/12/12 00:19:30;;;;;;;90.20;39.47;;;;;;;-0.62;100.00;99408.56;5017628;28;20046;-69
2020/12/12 00:21:56;;;;;;;108.53;41.50;;;;;;;-0.57;100.00;99423.31;5009313;28;20044;-68
2020/12/12 00:24:22;;;;;;;124.40;42.87;;;;;;;-0.60;100.00;99415.50;5010184;28;20609;-69
2020/12/12 00:26:48;;;;;;;116.63;46.17;;;;;;;-0.60;100.00;99418.09;5007450;28;20049;-69
2020/12/12 00:29:15;;;;;;;105.70;41.53;;;;;;;-0.58;100.00;99421.59;5009381;28;20570;-69
2020/12/12 00:31:44;;;;;;;98.33;40.23;;;;;;;-0.59;100.00;99413.75;4995907;28;20101;-69
2020/12/12 00:34:11;;;;;;;109.83;42.03;;;;;;;-0.50;100.00;99420.75;5010024;28;20037;-69
2020/12/12 00:36:41;;;;;;;110.53;43.73;;;;;;;-0.53;100.00;99418.13;5009553;28;20034;-69
2020/12/12 00:39:07;;;;;;;108.20;40.47;;;;;;;-0.51;100.00;99411.22;5009460;28;20099;-69
2020/12/12 00:41:38;;;;;;;110.50;42.53;;;;;;;-0.47;100.00;99412.97;5008055;28;20042;-69
2020/12/12 00:44:07;;;;;;;110.57;43.10;;;;;;;-0.46;100.00;99405.19;4992222;28;20046;-69
2020/12/12 00:46:34;;;;;;;97.90;41.27;;;;;;;-0.47;100.00;99412.97;4992338;28;20460;-69
2020/12/12 00:49:00;;;;;;;105.33;41.83;;;;;;;-0.48;100.00;99411.25;5022342;28;20073;-69
2020/12/12 00:51:27;;;;;;;101.17;42.03;;;;;;;-0.48;100.00;99408.66;5009659;28;20486;-69
2020/12/12 00:53:53;;;;;;;99.00;40.30;;;;;;;-0.46;100.00;99414.69;5001792;28;20073;-69
2020/12/12 00:56:19;;;;;;;116.93;46.13;;;;;;;-0.48;100.00;99411.25;5004737;28;20040;-69
2020/12/12 00:58:45;;;;;;;112.23;45.60;;;;;;;-0.47;100.00;99413.84;5019207;28;20037;-68
2020/12/12 01:01:12;;;;;;;103.87;42.83;;;;;;;-0.43;100.00;99410.38;5013259;28;20045;-69
2020/12/12 01:03:43;;;;;;;108.00;41.60;;;;;;;-0.44;100.00;99418.16;5008757;28;20037;-69
2020/12/12 01:06:10;;;;;;;105.60;41.90;;;;;;;-0.42;100.00;99416.44;5008521;28;20415;-69
2020/12/12 01:08:37;;;;;;;117.57;45.87;;;;;;;-0.35;100.00;99410.41;5008744;28;20037;-69
2020/12/12 01:11:04;;;;;;;104.87;42.43;;;;;;;-0.38;100.00;99410.41;5009756;28;20478;-69
2020/12/12 01:13:31;;;;;;;98.30;40.63;;;;;;;-0.38;100.00;99418.19;5009645;28;20034;-69
2020/12/12 01:15:57;;;;;;;98.97;41.80;;;;;;;-0.39;100.00;99409.53;5009418;28;20049;-69
2020/12/12 01:18:23;;;;;;;95.43;39.67;;;;;;;-0.39;100.00;99414.72;5009739;28;20104;-69
2020/12/12 01:20:49;;;;;;;100.20;41.07;;;;;;;-0.39;100.00;99412.13;5017531;28;20501;-69
2020/12/12 01:23:16;;;;;;;100.57;42.33;;;;;;;-0.39;100.00;99417.31;5012716;28;20096;-69
2020/12/12 01:25:42;;;;;;;110.00;41.70;;;;;;;-0.37;100.00;99418.19;5007914;28;20139;-69
2020/12/12 01:28:08;;;;;;;101.10;42.03;;;;;;;-0.38;100.00;99423.38;4992573;28;20053;-69
2020/12/12 01:30:34;;;;;;;94.23;39.33;;;;;;;-0.38;100.00;99415.59;5011553;28;20030;-69
2020/12/12 01:33:00;;;;;;;97.30;37.80;;;;;;;-0.37;100.00;99417.31;5015037;28;20494;-69
2020/12/12 01:35:27;;;;;;;90.27;39.13;;;;;;;-0.38;100.00;99413.00;5014252;28;20491;-69
2020/12/12 01:37:53;;;;;;;94.53;39.73;;;;;;;-0.36;100.00;99422.50;4994480;28;20450;-69
2020/12/12 01:40:19;;;;;;;91.83;40.13;;;;;;;-0.31;100.00;99425.13;5019794;28;20095;-69
2020/12/12 01:42:45;;;;;;;92.97;38.43;;;;;;;-0.31;100.00;99427.72;5023458;28;20041;-69
2020/12/12 01:45:11;;;;;;;89.57;38.30;;;;;;;-0.33;100.00;99429.47;5008042;28;20626;-69
2020/12/12 01:47:38;;;;;;;93.03;41.30;;;;;;;-0.31;100.00;99426.00;5007503;28;20052;-69
2020/12/12 01:50:06;;;;;;;87.90;38.43;;;;;;;-0.30;100.00;99434.66;5007028;28;20042;-69
2020/12/12 01:52:32;;;;;;;74.83;33.37;;;;;;;-0.32;100.00;99433.78;5007806;28;20042;-69
2020/12/12 01:54:59;;;;;;;84.13;34.50;;;;;;;-0.31;100.00;99435.53;5008938;28;20042;-69
2020/12/12 01:57:25;;;;;;;88.40;38.13;;;;;;;-0.32;100.00;99428.59;5005486;28;20042;-69
2020/12/12 01:59:52;;;;;;;97.93;40.63;;;;;;;-0.30;100.00;99432.06;5022427;28;20089;-69
2020/12/12 02:02:20;;;;;;;93.53;38.27;;;;;;;-0.29;100.00;99431.19;5016689;28;20061;-69
2020/12/12 02:04:48;;;;;;;94.50;35.97;;;;;;;-0.28;100.00;99438.13;5012628;28;20048;-69
2020/12/12 02:07:16;;;;;;;99.23;41.53;;;;;;;-0.28;100.00;99428.59;5023450;28;20045;-69
2020/12/12 02:09:43;;;;;;;98.63;39.33;;;;;;;-0.26;100.00;99430.31;5022473;28;20050;-69
2020/12/12 02:12:10;;;;;;;89.40;38.37;;;;;;;-0.23;100.00;99432.97;5123651;23;20032;-70
2020/12/12 02:14:38;;;;;;;98.30;41.27;;;;;;;-0.23;100.00;99432.97;5084081;28;20071;-70
2020/12/12 02:17:05;;;;;;;95.30;39.70;;;;;;;-0.22;100.00;99432.09;5068569;28;20040;-70
2020/12/12 02:19:32;;;;;;;96.37;40.53;;;;;;;-0.22;100.00;99426.91;5068315;28;20051;-70
2020/12/12 02:21:59;;;;;;;83.93;36.60;;;;;;;-0.22;100.00;99425.16;5066655;28;20044;-70
2020/12/12 02:24:29;;;;;;;87.03;39.87;;;;;;;-0.23;100.00;99418.25;5067050;28;20044;-70
2020/12/12 02:27:04;;;;;;;97.43;42.70;;;;;;;-0.21;100.00;99411.31;5065789;28;20562;-70
2020/12/12 02:29:50;;;;;;;92.50;38.97;;;;;;;-0.21;100.00;99419.13;5066441;28;20544;-69
2020/12/12 02:32:17;;;;;;;89.93;38.40;;;;;;;-0.19;100.00;99412.19;5066765;28;20513;-70
2020/12/12 02:34:43;;;;;;;84.37;38.37;;;;;;;-0.20;100.00;99407.88;5066229;28;20432;-70
2020/12/12 02:37:09;;;;;;;83.80;36.97;;;;;;;-0.17;100.00;99405.28;5067259;28;20040;-70
2020/12/12 02:39:35;;;;;;;92.20;39.70;;;;;;;-0.14;100.00;99410.47;5067959;28;20032;-70
2020/12/12 02:42:02;;;;;;;93.70;40.87;;;;;;;-0.17;100.00;99401.81;5066284;28;20112;-70
2020/12/12 02:44:28;;;;;;;76.80;36.70;;;;;;;-0.21;100.00;99402.66;5067322;28;20041;-70
2020/12/12 02:46:54;;;;;;;86.53;39.13;;;;;;;-0.26;100.00;99407.84;5067718;28;20037;-69
2020/12/12 02:49:20;;;;;;;86.27;39.23;;;;;;;-0.29;100.00;99411.28;5066178;28;20610;-70
2020/12/12 02:51:46;;;;;;;88.70;40.50;;;;;;;-0.32;100.00;99406.09;5067594;28;20044;-70
2020/12/12 02:54:13;;;;;;;91.30;39.43;;;;;;;-0.34;100.00;99400.06;5067784;28;20044;-70
2020/12/12 02:56:39;;;;;;;91.83;37.90;;;;;;;-0.32;100.00;99400.91;5067645;28;20036;-70
2020/12/12 02:59:05;;;;;;;86.20;37.30;;;;;;;-0.39;100.00;99390.50;5055309;28;20224;-70
2020/12/12 03:01:31;;;;;;;78.03;36.80;;;;;;;-0.46;100.00;99388.75;5066372;28;20044;-70
2020/12/12 03:03:57;;;;;;;86.70;38.63;;;;;;;-0.52;100.00;99396.50;5068157;28;20098;-70
2020/12/12 03:06:23;;;;;;;86.47;40.67;;;;;;;-0.48;100.00;99401.72;5065873;28;20098;-70
2020/12/12 03:08:50;;;;;;;80.30;36.17;;;;;;;-0.49;100.00;99400.00;5067540;28;20090;-70
2020/12/12 03:11:16;;;;;;;95.13;41.70;;;;;;;-0.41;100.00;99394.84;5075491;28;20048;-70
2020/12/12 03:13:42;;;;;;;89.97;40.97;;;;;;;-0.41;100.00;99398.31;5067483;28;20113;-70
2020/12/12 03:16:08;;;;;;;93.80;42.70;;;;;;;-0.38;100.00;99398.28;5066396;28;20028;-70
2020/12/12 03:18:34;;;;;;;93.43;40.07;;;;;;;-0.36;100.00;99399.16;5066977;28;20447;-70
2020/12/12 03:21:00;;;;;;;84.53;37.93;;;;;;;-0.38;100.00;99397.44;5063318;28;20037;-70
2020/12/12 03:23:26;;;;;;;85.40;41.67;;;;;;;-0.36;100.00;99396.56;5064476;28;20032;-70
2020/12/12 03:25:53;;;;;;;90.97;41.77;;;;;;;-0.35;100.00;99398.28;5059351;28;20045;-70
2020/12/12 03:28:19;;;;;;;78.10;37.77;;;;;;;-0.36;100.00;99409.53;5048656;28;20052;-70
2020/12/12 03:30:45;;;;;;;90.53;39.20;;;;;;;-0.29;100.00;99397.47;5064723;28;20048;-70
2020/12/12 03:33:11;;;;;;;84.07;41.13;;;;;;;-0.32;100.00;99400.91;5063505;28;20447;-69
2020/12/12 03:35:37;;;;;;;91.83;44.00;;;;;;;-0.33;100.00;99403.53;5063595;28;20039;-69
2020/12/12 03:38:03;;;;;;;86.17;40.83;;;;;;;-0.35;100.00;99406.06;5064973;28;20513;-70
2020/12/12 03:40:33;;;;;;;89.47;42.23;;;;;;;-0.27;100.00;99403.50;5065120;28;20041;-70
2020/12/12 03:42:59;;;;;;;82.10;40.73;;;;;;;-0.25;100.00;99403.50;5063713;28;20052;-70
2020/12/12 03:45:27;;;;;;;86.30;41.73;;;;;;;-0.25;100.00;99407.00;5063147;28;20041;-70
2020/12/12 03:47:53;;;;;;;84.50;39.73;;;;;;;-0.18;100.00;99411.31;5038037;28;20053;-70
2020/12/12 03:50:27;;;;;;;79.07;39.97;;;;;;;-0.19;100.00;99409.59;5063353;28;20113;-70
2020/12/12 03:52:55;;;;;;;;;;;;;;;-0.18;100.00;99416.50;5049310;28;20124;-70
2020/12/12 03:55:21;;;;;;;81.93;40.13;;;;;;;-0.13;100.00;99403.56;5040693;28;19921;-70
2020/12/12 03:57:47;;;;;;;84.53;39.77;;;;;;;-0.13;100.00;99412.22;5080687;28;20048;-70
2020/12/12 04:00:13;;;;;;;92.00;43.30;;;;;;;-0.11;100.00;99405.28;5066639;28;20521;-70
2020/12/12 04:02:40;;;;;;;86.97;42.50;;;;;;;-0.08;100.00;99409.63;5066950;28;20060;-70
2020/12/12 04:05:06;;;;;;;86.30;41.10;;;;;;;-0.11;100.00;99409.63;5069793;28;20091;-70
2020/12/12 04:07:32;;;;;;;81.97;39.87;;;;;;;-0.12;100.00;99406.16;5070624;28;20101;-70
2020/12/12 04:09:58;;;;;;;77.83;39.13;;;;;;;-0.14;100.00;99407.88;5069099;28;20044;-70
2020/12/12 04:12:24;;;;;;;87.70;40.77;;;;;;;-0.12;100.00;99405.28;5076720;28;20048;-70
2020/12/12 04:14:50;;;;;;;90.33;41.93;;;;;;;-0.10;100.00;99413.94;5070373;28;20094;-70
2020/12/12 04:17:16;;;;;;;81.93;41.77;;;;;;;-0.08;100.00;99402.72;5068676;28;20044;-70
2020/12/12 04:19:43;;;;;;;85.93;39.90;;;;;;;-0.13;100.00;99401.81;5069536;28;20559;-70
2020/12/12 04:22:09;;;;;;;80.27;40.97;;;;;;;-0.07;100.00;99411.38;5069042;28;20119;-70
2020/12/12 04:24:35;;;;;;;80.70;41.70;;;;;;;-0.10;100.00;99401.81;5056144;28;20091;-70
2020/12/12 04:27:02;;;;;;;80.87;39.37;;;;;;;-0.12;100.00;99403.56;5069704;28;20047;-70
2020/12/12 04:29:28;;;;;;;81.93;40.20;;;;;;;-0.15;100.00;99402.69;5068553;28;20093;-69
2020/12/12 04:31:54;;;;;;;90.70;41.73;;;;;;;-0.14;100.00;99404.44;5065823;28;20459;-70
2020/12/12 04:34:20;;;;;;;90.33;41.73;;;;;;;-0.15;100.00;99413.94;5069609;28;20180;-70
2020/12/12 04:36:46;;;;;;;84.37;41.17;;;;;;;-0.13;100.00;99404.44;5067843;28;20040;-70
2020/12/12 04:39:13;;;;;;;90.33;43.83;;;;;;;-0.14;100.00;99400.09;5063629;28;20375;-70
2020/12/12 04:41:41;;;;;;;91.60;43.17;;;;;;;-0.12;100.00;99392.31;5069165;28;20664;-70
2020/12/12 04:44:07;;;;;;;89.97;45.13;;;;;;;-0.12;100.00;99400.97;5068503;28;20033;-70
2020/12/12 04:46:37;;;;;;;86.33;43.47;;;;;;;-0.14;100.00;99412.22;5061322;28;20037;-70
2020/12/12 04:49:03;;;;;;;83.33;38.57;;;;;;;-0.20;100.00;99404.41;5069461;28;20044;-70
2020/12/12 04:51:30;;;;;;;82.67;39.93;;;;;;;-0.22;100.00;99404.41;5070474;28;20233;-70
2020/12/12 04:53:57;;;;;;;91.70;42.50;;;;;;;-0.22;100.00;99404.41;5067788;28;20033;-70
2020/12/12 04:56:25;;;;;;;88.20;42.67;;;;;;;-0.21;100.00;99405.25;5067929;28;20032;-70
2020/12/12 04:58:52;;;;;;;99.63;46.13;;;;;;;-0.22;100.00;99398.34;5068783;28;20044;-70
2020/12/12 05:01:19;;;;;;;81.43;40.80;;;;;;;-0.32;100.00;99392.28;5067718;28;20074;-70
2020/12/12 05:03:45;;;;;;;83.67;41.97;;;;;;;-0.35;100.00;99403.47;5051262;28;20044;-69
2020/12/12 05:06:12;;;;;;;89.70;42.17;;;;;;;-0.33;100.00;99398.31;5067111;28;20040;-70
2020/12/12 05:08:38;;;;;;;85.97;42.07;;;;;;;-0.36;100.00;99403.47;5068886;28;20070;-70
2020/12/12 05:11:08;;;;;;;87.53;40.20;;;;;;;-0.43;100.00;99409.50;5073281;28;20065;-70
2020/12/12 05:13:34;;;;;;;94.67;44.33;;;;;;;-0.45;100.00;99416.44;5051323;28;20432;-70
2020/12/12 05:16:01;;;;;;;92.63;44.93;;;;;;;-0.48;100.00;99417.28;5062022;28;20539;-70
2020/12/12 05:18:27;;;;;;;86.27;38.83;;;;;;;-0.59;100.00;99416.38;5065340;28;20079;-69
2020/12/12 05:20:54;;;;;;;92.53;43.63;;;;;;;-0.51;100.00;99419.00;5046922;28;20134;-69
2020/12/12 05:23:21;;;;;;;96.30;46.00;;;;;;;-0.48;100.00;99425.06;5067078;28;20040;-69
2020/12/12 05:25:49;;;;;;;94.70;44.90;;;;;;;-0.49;100.00;99420.75;5060531;28;20060;-69
2020/12/12 05:28:16;;;;;;;96.77;44.23;;;;;;;-0.48;100.00;99421.63;5066402;28;20043;-70
2020/12/12 05:30:46;;;;;;;97.27;45.10;;;;;;;-0.46;100.00;99422.47;5059340;28;20453;-69
2020/12/12 05:33:14;;;;;;;86.07;41.47;;;;;;;-0.47;100.00;99425.94;5065366;28;20425;-69
2020/12/12 05:35:41;;;;;;;98.70;44.27;;;;;;;-0.38;100.00;99423.38;5063313;28;20064;-69
2020/12/12 05:38:09;;;;;;;83.40;42.53;;;;;;;-0.38;100.00;99413.00;5067592;28;20497;-69
2020/12/12 05:40:40;;;;;;;91.00;42.33;;;;;;;-0.38;100.00;99420.78;5065671;28;20071;-70
2020/12/12 05:43:11;;;;;;;95.03;43.27;;;;;;;-0.39;100.00;99416.47;5062704;28;20086;-69
2020/12/12 05:45:39;;;;;;;93.43;42.77;;;;;;;-0.35;100.00;99413.00;5066385;28;20028;-69
2020/12/12 05:48:11;;;;;;;96.03;46.33;;;;;;;-0.35;100.00;99423.38;5067123;28;20440;-69
2020/12/12 05:50:38;;;;;;;102.57;43.93;;;;;;;-0.35;100.00;99421.66;5061840;28;20032;-69
2020/12/12 05:53:05;;;;;;;106.60;45.57;;;;;;;-0.30;100.00;99427.72;5066220;28;20161;-69
2020/12/12 05:55:32;;;;;;;100.43;46.70;;;;;;;-0.24;100.00;99426.03;5064910;28;20550;-69
2020/12/12 05:57:59;;;;;;;102.53;44.57;;;;;;;-0.24;100.00;99426.91;5067759;28;20664;-69
2020/12/12 06:00:27;;;;;;;105.17;43.37;;;;;;;-0.18;100.00;99431.22;5065930;28;20566;-69
2020/12/12 06:03:05;;;;;;;96.93;44.33;;;;;;;-0.18;100.00;99432.09;5066197;28;20106;-69
2020/12/12 06:05:32;;;;;;;99.33;44.67;;;;;;;-0.16;100.00;99435.56;5062709;28;20060;-69
2020/12/12 06:08:03;;;;;;;98.20;42.27;;;;;;;-0.17;100.00;99435.53;5065432;28;20051;-69
2020/12/12 06:10:34;;;;;;;101.30;44.10;;;;;;;-0.17;100.00;99440.75;5057716;28;20071;-69
2020/12/12 06:13:04;;;;;;;101.70;42.33;;;;;;;-0.11;100.00;99428.66;5065873;28;20044;-69
2020/12/12 06:15:33;;;;;;;89.40;42.83;;;;;;;-0.18;100.00;99428.63;5067043;28;20645;-69
2020/12/12 06:18:19;;;;;;;103.77;44.97;;;;;;;-0.21;100.00;99437.28;5063484;28;20029;-69
2020/12/12 06:20:46;;;;;;;101.63;44.27;;;;;;;-0.20;100.00;99436.41;5064770;28;20040;-69
2020/12/12 06:23:12;;;;;;;104.77;45.80;;;;;;;-0.16;100.00;99438.16;5064261;28;20033;-70
2020/12/12 06:25:38;;;;;;;82.83;40.37;;;;;;;-0.14;100.00;99439.03;5067499;28;20032;-69
2020/12/12 06:28:05;;;;;;;92.23;40.80;;;;;;;-0.17;100.00;99443.34;5067565;28;20048;-70
2020/12/12 06:30:31;;;;;;;94.03;42.33;;;;;;;-0.21;100.00;99442.47;5066208;28;20324;-70
2020/12/12 06:32:59;;;;;;;85.00;38.87;;;;;;;-0.21;100.00;99442.47;5064739;28;20037;-70
2020/12/12 06:35:33;;;;;;;93.57;41.23;;;;;;;-0.18;100.00;99445.06;5066532;28;20036;-69
2020/12/12 06:38:18;;;;;;;98.80;44.20;;;;;;;-0.22;100.00;99447.66;5067542;28;20049;-70
2020/12/12 06:40:44;;;;;;;91.13;38.88;;;;;;;-0.24;100.00;99445.06;5065772;28;20497;-70
2020/12/12 06:43:33;;;;;;;106.17;41.87;;;;;;;-0.24;100.00;99445.06;5061260;28;20118;-70
2020/12/12 06:46:04;;;;;;;90.27;39.43;;;;;;;-0.30;100.00;99437.25;5029812;28;20048;-70
2020/12/12 06:48:32;;;;;;;84.63;38.13;;;;;;;-0.27;100.00;99439.84;5082891;28;20439;-69
2020/12/12 06:51:01;;;;;;;98.07;42.30;;;;;;;-0.29;100.00;99441.56;5066436;28;20033;-70
2020/12/12 06:53:29;;;;;;;101.37;41.70;;;;;;;-0.29;100.00;99455.41;5065495;28;20489;-70
2020/12/12 06:56:12;;;;;;;94.57;38.40;;;;;;;-0.32;100.00;99444.16;5066532;28;20098;-70
2020/12/12 06:58:39;;;;;;;80.90;37.03;;;;;;;-0.36;100.00;99450.19;5066078;28;20036;-70
2020/12/12 07:01:25;;;;;;;107.60;41.90;;;;;;;-0.27;100.00;99447.63;5066554;28;20106;-69
2020/12/12 07:03:56;;;;;;;92.57;39.10;;;;;;;-0.20;100.00;99464.97;5050242;28;20037;-70
2020/12/12 07:06:26;;;;;;;89.83;38.43;;;;;;;-0.22;100.00;99456.31;5064440;28;20308;-70
2020/12/12 07:08:57;;;;;;;95.90;39.13;;;;;;;-0.11;100.00;99461.53;5065245;28;20055;-70
2020/12/12 07:11:25;;;;;;;88.80;38.03;;;;;;;-0.10;100.00;99456.34;5061806;28;20094;-70
2020/12/12 07:13:52;;;;;;;89.63;35.90;;;;;;;-0.15;100.00;99458.06;5064969;28;20041;-70
2020/12/12 07:16:20;;;;;;;84.67;36.70;;;;;;;-0.15;100.00;99458.06;5064723;28;20389;-70
2020/12/12 07:18:48;;;;;;;84.53;35.77;;;;;;;-0.13;100.00;99461.53;5066032;28;20397;-70
2020/12/12 07:21:14;;;;;;;90.70;38.67;;;;;;;-0.10;100.00;99461.53;5066008;28;20042;-70
2020/12/12 07:23:41;;;;;;;90.10;38.87;;;;;;;-0.10;100.00;99465.84;5066131;28;20032;-70
2020/12/12 07:26:07;;;;;;;83.23;37.37;;;;;;;-0.12;100.00;99470.19;5066722;28;20037;-70
2020/12/12 07:28:33;;;;;;;86.13;37.83;;;;;;;-0.14;100.00;99469.31;5066781;28;20037;-70
2020/12/12 07:31:01;;;;;;;97.43;40.27;;;;;;;-0.16;100.00;99478.84;5050416;28;20044;-70
2020/12/12 07:33:28;;;;;;;86.73;37.87;;;;;;;-0.12;100.00;99473.66;5068993;28;20041;-70
2020/12/12 07:35:55;;;;;;;79.33;38.23;;;;;;;-0.10;100.00;99482.28;5069953;28;20065;-70
2020/12/12 07:38:21;;;;;;;83.40;35.57;;;;;;;-0.10;100.00;99484.03;5069716;28;20699;-70
2020/12/12 07:40:47;;;;;;;92.63;37.67;;;;;;;-0.09;100.00;99486.63;5057356;28;20044;-70
2020/12/12 07:43:14;;;;;;;87.57;40.50;;;;;;;-0.07;100.00;99490.13;5049026;28;20056;-70
2020/12/12 07:48:09;;;;;;;75.60;34.23;;;;;;;-0.05;100.00;99493.56;5069319;28;20437;-69
2020/12/12 07:50:39;;;;;;;85.00;36.13;;;;;;;-0.01;100.00;99502.22;5071932;28;20056;-70
2020/12/12 07:53:07;;;;;;;80.80;34.50;;;;;;;0.06;100.00;99508.31;5061984;28;20112;-70
2020/12/12 07:55:39;;;;;;;74.53;33.50;;;;;;;0.06;100.00;99510.91;5068786;28;20089;-70
2020/12/12 07:58:05;;;;;;;76.03;33.80;;;;;;;0.07;100.00;99516.13;5068996;28;20082;-70
2020/12/12 08:00:31;;;;;;;70.73;32.17;;;;;;;0.07;100.00;99518.72;5069464;28;20063;-70
2020/12/12 08:02:59;;;;;;;71.47;32.53;;;;;;;0.11;100.00;99517.88;5069034;28;20098;-70
2020/12/12 08:05:25;;;;;;;75.27;32.40;;;;;;;0.07;100.00;99523.91;5061806;28;20075;-70
2020/12/12 08:07:51;;;;;;;80.33;34.10;;;;;;;0.06;100.00;99524.75;5069701;28;20045;-70
2020/12/12 08:10:29;;;;;;;88.03;33.93;;;;;;;0.05;100.00;99522.16;5074251;28;20125;-70
2020/12/12 08:12:55;;;;;;;80.60;36.67;;;;;;;0.08;100.00;99525.63;5070929;28;20032;-69
2020/12/12 08:15:30;;;;;;;72.00;32.23;;;;;;;0.11;100.00;99527.41;5069158;28;20048;-70
2020/12/12 08:17:56;;;;;;;78.23;31.33;;;;;;;0.14;100.00;99533.44;5070266;28;20036;-70
2020/12/12 08:20:25;;;;;;;76.20;34.03;;;;;;;0.17;100.00;99522.19;5063141;28;20559;-69
2020/12/12 08:22:56;;;;;;;80.80;32.73;;;;;;;0.17;100.00;99530.88;5048834;28;20036;-70
2020/12/12 08:25:22;;;;;;;83.87;33.57;;;;;;;0.20;100.00;99537.81;5068390;28;20401;-70
2020/12/12 08:27:51;;;;;;;76.20;36.33;;;;;;;0.31;100.00;99535.25;5069436;28;20043;-70
2020/12/12 08:30:17;;;;;;;76.57;34.07;;;;;;;0.28;100.00;99536.97;5067652;28;20032;-70
2020/12/12 08:32:47;;;;;;;67.60;29.57;;;;;;;0.30;100.00;99544.75;5069218;28;20072;-70
2020/12/12 08:35:27;;;;;;;80.27;33.30;;;;;;;0.25;100.00;99529.19;5069107;28;20041;-70
2020/12/12 08:38:11;;;;;;;73.93;34.00;;;;;;;0.34;100.00;99536.13;5060843;28;20367;-70
2020/12/12 08:40:48;;;;;;;73.47;30.00;;;;;;;0.37;100.00;99546.50;5069345;28;20029;-70
2020/12/12 08:43:15;;;;;;;75.37;31.20;;;;;;;0.39;100.00;99543.91;5067360;28;20394;-70
2020/12/12 08:45:54;;;;;;;74.03;30.70;;;;;;;0.41;100.00;99544.78;5069338;28;20118;-70
2020/12/12 08:48:20;;;;;;;76.33;32.33;;;;;;;0.43;100.00;99550.88;5068136;28;20101;-71
2020/12/12 08:50:52;;;;;;;68.70;28.57;;;;;;;0.47;100.00;99548.28;5068954;28;20041;-70
2020/12/12 08:53:27;;;;;;;72.20;31.33;;;;;;;0.49;100.00;99548.25;5067500;28;20489;-70
2020/12/12 08:56:12;;;;;;;73.83;32.37;;;;;;;0.55;100.00;99550.88;5068700;28;20040;-70
2020/12/12 08:58:46;;;;;;;65.77;29.00;;;;;;;0.59;100.00;99562.16;5061135;28;20048;-70
2020/12/12 09:01:17;;;;;;;69.07;30.00;;;;;;;0.68;100.00;99550.06;5067096;28;20047;-70
2020/12/12 09:03:58;;;;;;;59.93;27.53;;;;;;;0.69;100.00;99559.59;5061063;28;20041;-70
2020/12/12 09:06:27;;;;;;;72.53;31.47;;;;;;;0.73;100.00;99560.44;5068118;28;20489;-70
2020/12/12 09:09:11;;;;;;;70.37;30.77;;;;;;;0.73;100.00;99566.50;5049739;28;20499;-70
2020/12/12 09:11:39;;;;;;;;;;;;;;;0.77;100.00;99564.81;5067345;28;20047;-70
2020/12/12 09:14:06;;;;;;;62.87;27.10;;;;;;;0.85;100.00;99576.09;5066982;28;19936;-70
2020/12/12 09:16:32;;;;;;;65.53;28.17;;;;;;;0.75;100.00;99566.50;5067801;28;20102;-70
2020/12/12 09:18:58;;;;;;;73.00;30.10;;;;;;;0.76;100.00;99565.66;5067324;28;20508;-71
2020/12/12 09:21:24;;;;;;;68.87;28.93;;;;;;;0.74;100.00;99565.63;5046839;28;20095;-70
2020/12/12 09:23:51;;;;;;;65.90;29.43;;;;;;;0.80;100.00;99573.47;5067134;28;20378;-70
2020/12/12 09:26:18;;;;;;;64.30;28.40;;;;;;;0.90;100.00;99571.72;5068090;28;20032;-70
2020/12/12 09:28:45;;;;;;;65.27;29.77;;;;;;;0.84;100.00;99575.22;5071345;28;20521;-71
2020/12/12 09:31:13;;;;;;;67.70;29.47;;;;;;;0.90;100.00;99571.72;5065283;28;20434;-67
2020/12/12 09:33:40;;;;;;;58.83;25.83;;;;;;;0.93;100.00;99569.16;5051672;28;20040;-71
2020/12/12 09:36:06;;;;;;;67.60;27.90;;;;;;;0.90;100.00;99563.06;5067811;28;20044;-70
2020/12/12 09:38:32;;;;;;;63.83;28.33;;;;;;;1.00;100.00;99572.59;5063119;28;20041;-70
2020/12/12 09:40:58;;;;;;;59.47;26.97;;;;;;;1.06;100.00;99576.09;5058948;28;20056;-71
2020/12/12 09:43:36;;;;;;;63.90;26.77;;;;;;;1.01;100.00;99576.94;5064865;28;20040;-69
2020/12/12 09:46:02;;;;;;;60.27;27.53;;;;;;;1.05;100.00;99578.69;5060929;28;20035;-70
2020/12/12 09:48:29;;;;;;;63.83;27.30;;;;;;;1.11;100.00;99581.28;5064031;28;20120;-70
2020/12/12 09:50:55;;;;;;;60.27;27.13;;;;;;;1.11;100.00;99586.50;5047083;28;20041;-70
2020/12/12 09:53:21;;;;;;;50.63;25.63;;;;;;;1.07;100.00;99590.81;5046199;28;20455;-70
2020/12/12 09:55:47;;;;;;;59.33;26.63;;;;;;;1.13;100.00;99585.63;5059046;28;20044;-70
2020/12/12 09:58:13;;;;;;;56.07;27.47;;;;;;;1.19;100.00;99586.50;5051263;28;20040;-70
2020/12/12 10:00:41;;;;;;;59.03;26.63;;;;;;;1.16;100.00;99589.09;5061877;28;20086;-70
2020/12/12 10:03:07;;;;;;;61.27;26.13;;;;;;;1.13;100.00;99585.63;5064264;28;20036;-71
2020/12/12 10:05:34;;;;;;;58.23;26.03;;;;;;;1.15;100.00;99590.81;5065302;28;20479;-71
2020/12/12 10:08:01;;;;;;;59.23;28.33;;;;;;;1.15;100.00;99585.63;5066113;28;20063;-71
2020/12/12 10:10:30;;;;;;;64.50;28.70;;;;;;;1.16;100.00;99589.09;5060838;28;20571;-71
2020/12/12 10:12:56;;;;;;;65.20;31.93;;;;;;;1.17;100.00;99589.06;5060626;28;20121;-70
2020/12/12 10:15:23;;;;;;;67.27;31.17;;;;;;;1.23;99.67;99590.81;5064439;28;20047;-71
2020/12/12 10:17:51;;;;;;;58.93;25.83;;;;;;;1.10;99.50;99598.63;5061831;28;20051;-71
2020/12/12 10:20:17;;;;;;;56.20;27.13;;;;;;;1.09;100.00;99588.22;5062202;28;20288;-70
2020/12/12 10:22:44;;;;;;;69.73;28.47;;;;;;;1.11;100.00;99594.31;5063474;28;20070;-71
2020/12/12 10:25:10;;;;;;;51.47;25.87;;;;;;;1.19;100.00;99596.91;5063890;28;20044;-71
2020/12/12 10:27:37;;;;;;;56.87;24.17;;;;;;;1.31;99.89;99591.69;5043959;28;20521;-70
2020/12/12 10:30:05;;;;;;;59.07;26.07;;;;;;;1.21;99.61;99595.16;5044194;28;20056;-71
2020/12/12 10:32:32;;;;;;;57.03;27.10;;;;;;;1.25;99.87;99594.28;5056381;28;20047;-70
2020/12/12 10:34:58;;;;;;;58.47;25.63;;;;;;;1.32;99.57;99593.44;5060012;28;20040;-71
2020/12/12 10:37:24;;;;;;;55.63;25.37;;;;;;;1.25;99.34;99589.94;5063069;28;20432;-68
2020/12/12 10:42:35;;;;;;;58.20;25.13;;;;;;;1.31;99.18;99595.16;5066930;28;20033;-70
2020/12/12 10:45:06;;;;;;;52.33;23.77;;;;;;;1.36;99.23;99597.78;5046110;28;20086;-71
2020/12/12 10:47:32;;;;;;;55.43;24.83;;;;;;;1.26;98.71;99589.09;5046104;28;20397;-71
2020/12/12 10:49:58;;;;;;;55.80;23.90;;;;;;;1.31;98.92;99589.09;5066591;28;20551;-70
2020/12/12 10:52:35;;;;;;;54.17;24.03;;;;;;;1.35;98.63;99588.25;5066491;28;20036;-70
2020/12/12 10:55:02;;;;;;;49.10;24.60;;;;;;;1.41;98.70;99585.59;5067278;28;20048;-70
2020/12/12 10:57:28;;;;;;;54.27;24.93;;;;;;;1.48;98.56;99591.69;5066159;28;20108;-70
2020/12/12 10:59:55;;;;;;;50.33;24.50;;;;;;;1.48;98.15;99595.16;5065414;28;20040;-70
2020/12/12 11:02:21;;;;;;;53.40;24.00;;;;;;;1.38;97.36;99599.50;5054620;28;20041;-70
2020/12/12 11:04:47;;;;;;;59.27;24.73;;;;;;;1.36;97.69;99589.97;5063251;28;20044;-70
2020/12/12 11:07:14;;;;;;;55.43;25.30;;;;;;;1.39;97.64;99593.44;5065326;28;20230;-70
2020/12/12 11:09:40;;;;;;;59.23;22.43;;;;;;;1.51;96.87;99582.13;5052180;28;20048;-70
2020/12/12 11:12:06;;;;;;;51.47;22.87;;;;;;;1.51;96.82;99591.66;5057000;28;20101;-70
2020/12/12 11:14:34;;;;;;;52.03;24.43;;;;;;;1.51;97.19;99583.88;5077286;28;20044;-69
2020/12/12 11:17:02;;;;;;;53.37;24.60;;;;;;;1.48;97.54;99594.28;5056193;28;20045;-71
2020/12/12 11:19:28;;;;;;;46.67;22.70;;;;;;;1.53;98.08;99597.75;5064958;28;20029;-70
2020/12/12 11:21:55;;;;;;;60.10;25.20;;;;;;;1.55;97.29;99596.88;5068348;28;20033;-70